Time;durP1;ratioP1;P1;durP2;ratioP2;P2;SDS_P1;SDS_P2;PMS_P1;PMS_P2;Temp;Humidity;BMP_temperature;BMP_pressure;BME280_temperature;BME280_humidity;BME280_pressure;Samples;Min_cycle;Max_cycle;Signal;HPM_P1;HPM_P2
2022/08/12 00:50:18;;;;;;;3.65;1.90;;;;;;;;;;8360956;28;20043;-56
2022/08/12 00:54:19;;;;;;;4.15;2.00;;;;;;;;;;8360883;28;20043;-57
2022/08/12 00:58:22;;;;;;;2.73;1.73;;;;;;;;;;8362028;28;20126;-56
2022/08/12 01:02:27;;;;;;;2.65;1.80;;;;;;;;;;8359731;28;20512;-56
2022/08/12 01:15:05;;;;;;;2.58;1.77;;;;;;;;;;8359283;28;20035;-58
2022/08/12 01:19:06;;;;;;;1.73;1.63;;;;;;;;;;8340089;28;20037;-56
2022/08/12 01:23:17;;;;;;;2.00;1.90;;;;;;;;;;8343216;28;20086;-56
2022/08/12 01:27:18;;;;;;;2.58;1.67;;;;;;;;;;8340167;28;20048;-56
2022/08/12 01:31:19;;;;;;;3.80;1.70;;;;;;;;;;8341586;28;20063;-56
2022/08/12 01:35:20;;;;;;;3.63;1.85;;;;;;;;;;8340866;28;20047;-56
2022/08/12 01:39:27;;;;;;;3.90;1.98;;;;;;;;;;8341746;28;20035;-56
2022/08/12 01:43:27;;;;;;;2.15;1.83;;;;;;;;;;8340326;28;20177;-56
2022/08/12 01:47:54;;;;;;;3.35;1.67;;;;;;;;;;8339453;28;20052;-56
2022/08/12 01:51:55;;;;;;;5.53;2.08;;;;;;;;;;8327455;28;20041;-56
2022/08/12 01:55:56;;;;;;;1.95;1.75;;;;;;;;;;8347067;28;20995;-56
2022/08/12 02:00:00;;;;;;;2.85;1.83;;;;;;;;;;8363445;28;20508;-56
2022/08/12 02:12:48;;;;;;;2.50;1.70;;;;;;;;;;8364792;28;20055;-56
2022/08/12 02:16:48;;;;;;;2.50;1.70;;;;;;;;;;8365190;28;20132;-56
2022/08/12 02:21:04;;;;;;;3.70;1.90;;;;;;;;;;8362896;28;20058;-56
2022/08/12 02:25:04;;;;;;;3.42;2.00;;;;;;;;;;8366900;28;20178;-56
2022/08/12 02:29:06;;;;;;;4.30;2.00;;;;;;;;;;8365444;28;20362;-56
2022/08/12 02:33:06;;;;;;;4.38;1.70;;;;;;;;;;8363771;28;20408;-56
2022/08/12 02:37:09;;;;;;;3.70;1.90;;;;;;;;;;8364723;28;20070;-56
2022/08/12 02:41:11;;;;;;;2.15;1.65;;;;;;;;;;8364338;28;20025;-56
2022/08/12 02:45:13;;;;;;;2.72;1.67;;;;;;;;;;8364090;28;20144;-56
2022/08/12 02:49:18;;;;;;;2.88;1.90;;;;;;;;;;8363769;28;20020;-56
2022/08/12 02:53:18;;;;;;;2.55;1.83;;;;;;;;;;8363224;28;20029;-56
2022/08/12 02:57:21;;;;;;;3.15;1.70;;;;;;;;;;8363422;28;20032;-56
2022/08/12 03:01:23;;;;;;;2.10;1.90;;;;;;;;;;8362910;28;20044;-56
2022/08/12 03:05:24;;;;;;;2.70;1.83;;;;;;;;;;8363601;28;20032;-56
2022/08/12 03:09:24;;;;;;;2.15;1.77;;;;;;;;;;8363319;28;20111;-58
2022/08/12 03:13:25;;;;;;;2.40;1.80;;;;;;;;;;8362364;28;20093;-56
2022/08/12 03:17:50;;;;;;;2.30;1.92;;;;;;;;;;8361182;28;20034;-58
2022/08/12 03:21:53;;;;;;;4.38;2.03;;;;;;;;;;8356852;28;20257;-56
2022/08/12 03:25:57;;;;;;;4.80;1.83;;;;;;;;;;8363997;28;20023;-56
2022/08/12 03:29:58;;;;;;;2.13;1.92;;;;;;;;;;8361212;28;20377;-56
2022/08/12 03:33:59;;;;;;;3.67;1.83;;;;;;;;;;8363074;28;20036;-56
2022/08/12 03:38:04;;;;;;;2.00;1.80;;;;;;;;;;8363181;28;20031;-56
2022/08/12 03:42:05;;;;;;;1.67;1.58;;;;;;;;;;8364502;28;20038;-56
2022/08/12 04:07:49;;;;;;;5.57;1.80;;;;;;;;;;8365199;28;20090;-56
2022/08/12 04:16:12;;;;;;;4.00;1.80;;;;;;;;;;8364408;28;20413;-55
2022/08/12 04:20:17;;;;;;;3.58;1.63;;;;;;;;;;8361608;28;20489;-56
2022/08/12 04:24:19;;;;;;;4.70;2.00;;;;;;;;;;8363966;28;20025;-56
2022/08/12 04:28:26;;;;;;;2.90;1.70;;;;;;;;;;8363148;28;20039;-56
2022/08/12 04:32:26;;;;;;;2.45;1.77;;;;;;;;;;8362820;28;20044;-55
2022/08/12 04:36:27;;;;;;;2.67;1.55;;;;;;;;;;8363373;28;20127;-56
2022/08/12 04:40:29;;;;;;;2.80;1.80;;;;;;;;;;8363490;28;20138;-56
2022/08/12 04:44:30;;;;;;;2.60;1.67;;;;;;;;;;8362328;28;20097;-56
2022/08/12 04:48:30;;;;;;;2.92;1.75;;;;;;;;;;8362074;28;20106;-56
2022/08/12 04:52:30;;;;;;;4.63;1.60;;;;;;;;;;8362996;28;20028;-56
2022/08/12 04:56:31;;;;;;;2.05;1.63;;;;;;;;;;8363825;28;20085;-56
2022/08/12 05:00:32;;;;;;;3.80;1.80;;;;;;;;;;8360947;28;20041;-56
2022/08/12 05:04:32;;;;;;;3.85;1.70;;;;;;;;;;8361597;28;20036;-56
2022/08/12 05:08:33;;;;;;;1.92;1.83;;;;;;;;;;8363697;28;20032;-56
2022/08/12 05:12:35;;;;;;;4.18;1.95;;;;;;;;;;8362726;28;20537;-56
2022/08/12 05:16:36;;;;;;;2.67;1.80;;;;;;;;;;8360498;28;20040;-57
2022/08/12 05:20:36;;;;;;;4.27;1.87;;;;;;;;;;8362472;28;20033;-56
2022/08/12 05:24:37;;;;;;;4.43;1.70;;;;;;;;;;8364182;28;20262;-56
2022/08/12 05:28:37;;;;;;;5.40;2.15;;;;;;;;;;8366172;28;20101;-56
2022/08/12 05:32:37;;;;;;;5.20;1.92;;;;;;;;;;8367801;28;20047;-57
2022/08/12 05:36:37;;;;;;;4.03;1.95;;;;;;;;;;8368655;28;20021;-57
2022/08/12 05:40:37;;;;;;;4.45;2.00;;;;;;;;;;8368123;28;20035;-57
2022/08/12 05:44:38;;;;;;;5.68;1.88;;;;;;;;;;8365825;28;20054;-57
2022/08/12 05:48:38;;;;;;;5.70;1.70;;;;;;;;;;8366485;28;20036;-56
2022/08/12 05:52:38;;;;;;;3.15;2.00;;;;;;;;;;8367044;28;20020;-56
2022/08/12 05:56:40;;;;;;;3.33;1.60;;;;;;;;;;8367512;28;20027;-56
2022/08/12 06:00:41;;;;;;;11.05;2.08;;;;;;;;;;8365440;28;20060;-57
2022/08/12 06:04:42;;;;;;;10.13;2.10;;;;;;;;;;8368575;28;20105;-56
2022/08/12 06:08:47;;;;;;;3.35;1.80;;;;;;;;;;8369521;28;20071;-57
2022/08/12 06:12:48;;;;;;;3.33;1.90;;;;;;;;;;8366823;28;20029;-57
2022/08/12 06:16:50;;;;;;;3.45;1.80;;;;;;;;;;8369381;28;20525;-57
2022/08/12 06:20:56;;;;;;;6.65;1.95;;;;;;;;;;8373671;28;20050;-57
2022/08/12 06:24:56;;;;;;;5.03;1.90;;;;;;;;;;8378959;28;21936;-57
2022/08/12 06:28:59;;;;;;;2.47;1.90;;;;;;;;;;8383595;28;21521;-57
2022/08/12 06:32:59;;;;;;;2.67;1.80;;;;;;;;;;8378128;28;20112;-57
2022/08/12 06:37:00;;;;;;;5.40;1.85;;;;;;;;;;8377104;28;20020;-57
2022/08/12 06:45:22;;;;;;;5.80;1.90;;;;;;;;;;8383696;28;20111;-57
2022/08/12 06:49:22;;;;;;;;;;;;;;;;;;8384422;28;20021;-58
2022/08/12 06:53:23;;;;;;;3.88;1.65;;;;;;;;;;8376730;28;19971;-58
2022/08/12 06:57:26;;;;;;;3.65;1.65;;;;;;;;;;8372114;28;20032;-58
2022/08/12 07:01:26;;;;;;;3.20;1.65;;;;;;;;;;8368578;28;20055;-58
2022/08/12 07:05:27;;;;;;;6.88;1.90;;;;;;;;;;8368701;28;20481;-57
2022/08/12 07:09:27;;;;;;;7.00;1.95;;;;;;;;;;8370908;28;20024;-58
2022/08/12 07:13:34;;;;;;;3.25;1.70;;;;;;;;;;8367605;28;20059;-57
2022/08/12 07:17:35;;;;;;;4.40;1.80;;;;;;;;;;8369733;28;20127;-58
2022/08/12 07:21:37;;;;;;;4.82;1.70;;;;;;;;;;8366585;28;20438;-58
2022/08/12 07:25:38;;;;;;;3.47;1.60;;;;;;;;;;8369531;28;20044;-58
2022/08/12 07:29:38;;;;;;;4.70;1.73;;;;;;;;;;8366389;28;20047;-58
2022/08/12 07:33:40;;;;;;;8.23;1.98;;;;;;;;;;8368129;28;20033;-58
2022/08/12 07:37:43;;;;;;;7.13;1.52;;;;;;;;;;8369030;28;20930;-57
2022/08/12 07:41:43;;;;;;;4.43;1.55;;;;;;;;;;8380573;28;20041;-57
2022/08/12 07:45:44;;;;;;;5.18;1.80;;;;;;;;;;8376290;28;20161;-58
2022/08/12 07:49:44;;;;;;;4.07;1.58;;;;;;;;;;8375099;28;20020;-58
2022/08/12 07:53:45;;;;;;;4.80;1.50;;;;;;;;;;8368622;28;20326;-57
2022/08/12 07:57:51;;;;;;;3.53;1.75;;;;;;;;;;8370354;28;20029;-57
2022/08/12 08:01:52;;;;;;;7.28;2.22;;;;;;;;;;8368318;28;20430;-58
2022/08/12 08:05:52;;;;;;;5.50;1.50;;;;;;;;;;8367214;28;20016;-58
2022/08/12 08:09:56;;;;;;;2.05;1.40;;;;;;;;;;8376303;28;20066;-58
2022/08/12 08:14:00;;;;;;;3.20;1.40;;;;;;;;;;8369017;28;20028;-57
2022/08/12 08:18:02;;;;;;;5.05;1.50;;;;;;;;;;8365924;28;20047;-58
2022/08/12 08:22:02;;;;;;;4.45;1.73;;;;;;;;;;8365510;28;20024;-57
2022/08/12 08:26:02;;;;;;;4.45;1.40;;;;;;;;;;8367482;28;20024;-58
2022/08/12 08:30:02;;;;;;;3.90;1.42;;;;;;;;;;8369813;28;20025;-57
2022/08/12 08:34:03;;;;;;;2.50;1.40;;;;;;;;;;8368976;28;20078;-58
2022/08/12 08:38:07;;;;;;;1.77;1.60;;;;;;;;;;8370210;28;20475;-58
2022/08/12 08:42:42;;;;;;;1.55;1.45;;;;;;;;;;8373276;28;20598;-58
2022/08/12 08:46:36;;;;;;;3.78;1.58;;;;;;;;;;8373371;28;20032;-58
2022/08/12 08:50:36;;;;;;;3.85;1.70;;;;;;;;;;8375573;28;20358;-58
2022/08/12 08:54:36;;;;;;;4.30;1.40;;;;;;;;;;8372185;28;20021;-58
2022/08/12 08:58:37;;;;;;;2.23;1.50;;;;;;;;;;8370852;28;20024;-58
2022/08/12 09:02:37;;;;;;;3.40;1.60;;;;;;;;;;8372875;28;20256;-58
2022/08/12 09:06:40;;;;;;;3.08;1.38;;;;;;;;;;8377000;28;20028;-58
2022/08/12 09:10:41;;;;;;;6.60;1.48;;;;;;;;;;8378254;28;20103;-58
2022/08/12 09:14:42;;;;;;;3.00;1.53;;;;;;;;;;8376016;28;20048;-58
2022/08/12 09:18:42;;;;;;;2.10;1.47;;;;;;;;;;8366056;28;20279;-58
2022/08/12 09:22:43;;;;;;;5.07;1.70;;;;;;;;;;8372777;28;20216;-58
2022/08/12 09:26:45;;;;;;;6.05;1.30;;;;;;;;;;8370910;28;20255;-58
2022/08/12 09:30:48;;;;;;;2.47;1.30;;;;;;;;;;8368548;28;20490;-58
2022/08/12 09:34:48;;;;;;;4.40;1.50;;;;;;;;;;8377900;28;20024;-58
2022/08/12 09:38:49;;;;;;;7.07;1.48;;;;;;;;;;8374531;28;20109;-58
2022/08/12 09:47:09;;;;;;;2.42;1.30;;;;;;;;;;8376358;28;20475;-58
2022/08/12 09:51:11;;;;;;;3.20;1.30;;;;;;;;;;8371887;28;20445;-58
2022/08/12 09:55:13;;;;;;;2.92;1.30;;;;;;;;;;8373223;28;20016;-58
2022/08/12 09:59:14;;;;;;;3.17;1.10;;;;;;;;;;8373951;28;20033;-58
2022/08/12 10:03:15;;;;;;;4.05;1.20;;;;;;;;;;8370868;28;20802;-58
2022/08/12 10:07:15;;;;;;;4.30;1.30;;;;;;;;;;8371920;28;20028;-58
2022/08/12 10:15:34;;;;;;;3.25;1.33;;;;;;;;;;8371640;28;20210;-57
2022/08/12 10:19:36;;;;;;;4.47;1.45;;;;;;;;;;8362667;28;20024;-58
2022/08/12 10:23:38;;;;;;;4.65;1.38;;;;;;;;;;8372339;28;20473;-58
2022/08/12 10:31:58;;;;;;;1.70;1.20;;;;;;;;;;8367353;28;20036;-58
2022/08/12 10:35:59;;;;;;;1.30;1.20;;;;;;;;;;8371879;28;20029;-58
2022/08/12 10:40:03;;;;;;;1.57;1.37;;;;;;;;;;8383271;28;20020;-58
2022/08/12 10:44:11;;;;;;;3.55;1.60;;;;;;;;;;8379882;28;20032;-58
2022/08/12 10:48:11;;;;;;;4.43;1.35;;;;;;;;;;8376226;28;20123;-58
2022/08/12 10:52:12;;;;;;;1.88;1.30;;;;;;;;;;8373283;28;20028;-58
2022/08/12 10:56:13;;;;;;;5.22;1.42;;;;;;;;;;8375133;28;20031;-58
2022/08/12 11:00:13;;;;;;;1.50;1.40;;;;;;;;;;8375071;28;20414;-58
2022/08/12 11:04:14;;;;;;;2.88;1.33;;;;;;;;;;8371248;28;20086;-58
2022/08/12 11:08:16;;;;;;;3.28;1.33;;;;;;;;;;8375218;28;20355;-58
2022/08/12 11:12:17;;;;;;;1.45;1.30;;;;;;;;;;8373596;28;20024;-58
2022/08/12 11:16:17;;;;;;;3.10;1.30;;;;;;;;;;8383072;28;20048;-58
2022/08/12 11:20:17;;;;;;;2.10;1.30;;;;;;;;;;8373244;28;20028;-58
2022/08/12 11:24:18;;;;;;;2.87;1.30;;;;;;;;;;8384821;28;20028;-58
2022/08/12 11:28:18;;;;;;;3.43;1.40;;;;;;;;;;8378160;28;20492;-58
2022/08/12 11:32:18;;;;;;;1.60;1.50;;;;;;;;;;8373306;28;20037;-58
2022/08/12 11:36:19;;;;;;;3.92;1.30;;;;;;;;;;8380409;28;20502;-58
2022/08/12 11:40:19;;;;;;;3.50;1.30;;;;;;;;;;8376996;28;20033;-58
2022/08/12 11:44:19;;;;;;;7.33;1.50;;;;;;;;;;8380907;28;20405;-58
2022/08/12 11:48:19;;;;;;;2.38;1.50;;;;;;;;;;8382960;28;20276;-58
2022/08/12 11:52:19;;;;;;;3.05;1.50;;;;;;;;;;8377736;28;20107;-58
2022/08/12 11:56:20;;;;;;;2.17;1.30;;;;;;;;;;8383054;28;20032;-59
2022/08/12 12:00:20;;;;;;;2.50;1.40;;;;;;;;;;8375975;28;20029;-59
2022/08/12 12:04:21;;;;;;;1.90;1.20;;;;;;;;;;8374979;28;20032;-58
2022/08/12 12:08:23;;;;;;;2.28;1.23;;;;;;;;;;8379456;28;20050;-58
2022/08/12 12:12:23;;;;;;;3.35;1.30;;;;;;;;;;8378411;28;20036;-59
2022/08/12 12:16:23;;;;;;;1.60;1.27;;;;;;;;;;8372132;28;20090;-58
2022/08/12 12:20:24;;;;;;;2.13;1.20;;;;;;;;;;8373115;28;20056;-59
2022/08/12 12:24:24;;;;;;;1.20;1.10;;;;;;;;;;8370264;28;20119;-59
2022/08/12 12:28:24;;;;;;;3.47;1.40;;;;;;;;;;8366638;28;20025;-59
2022/08/12 12:32:24;;;;;;;2.88;1.30;;;;;;;;;;8366499;28;20071;-59
2022/08/12 12:36:25;;;;;;;3.17;1.20;;;;;;;;;;8369332;28;20120;-58
2022/08/12 12:40:26;;;;;;;5.23;1.43;;;;;;;;;;8371189;28;20575;-58
2022/08/12 12:44:26;;;;;;;1.60;1.20;;;;;;;;;;8365003;28;20040;-59
2022/08/12 12:48:26;;;;;;;2.95;1.40;;;;;;;;;;8369830;28;20405;-59
2022/08/12 12:52:26;;;;;;;1.30;1.20;;;;;;;;;;8367837;28;20036;-58
2022/08/12 12:56:26;;;;;;;3.55;1.20;;;;;;;;;;8369423;28;20035;-61
2022/08/12 13:00:27;;;;;;;1.70;1.10;;;;;;;;;;8367106;28;20136;-60
2022/08/12 13:04:28;;;;;;;3.20;1.10;;;;;;;;;;8367673;28;20143;-59
2022/08/12 13:08:30;;;;;;;2.25;1.30;;;;;;;;;;8367686;28;20577;-60
2022/08/12 13:12:30;;;;;;;3.13;1.42;;;;;;;;;;8366033;28;20538;-58
2022/08/12 13:16:31;;;;;;;4.13;1.17;;;;;;;;;;8368071;28;20090;-59
2022/08/12 13:20:31;;;;;;;1.67;1.10;;;;;;;;;;8363027;28;20040;-60
2022/08/12 13:24:32;;;;;;;4.70;1.40;;;;;;;;;;8367938;28;20057;-59
2022/08/12 13:28:32;;;;;;;3.80;1.13;;;;;;;;;;8364591;28;20028;-59
2022/08/12 13:32:32;;;;;;;3.65;1.20;;;;;;;;;;8363826;28;20032;-59
2022/08/12 13:36:34;;;;;;;1.83;1.08;;;;;;;;;;8365862;28;20032;-59
2022/08/12 13:40:35;;;;;;;3.67;1.10;;;;;;;;;;8366915;28;20028;-59
2022/08/12 13:44:35;;;;;;;3.38;1.20;;;;;;;;;;8366889;28;20032;-58
2022/08/12 13:48:35;;;;;;;4.80;1.30;;;;;;;;;;8369422;28;20068;-59
2022/08/12 13:52:36;;;;;;;1.20;1.10;;;;;;;;;;8368965;28;20032;-59
2022/08/12 13:56:37;;;;;;;4.00;1.20;;;;;;;;;;8370265;28;20028;-59
2022/08/12 14:00:37;;;;;;;4.20;1.30;;;;;;;;;;8369071;28;20776;-59
2022/08/12 14:04:38;;;;;;;1.40;1.10;;;;;;;;;;8373377;28;20424;-59
2022/08/12 14:08:38;;;;;;;3.20;1.10;;;;;;;;;;8366730;28;20512;-60
2022/08/12 14:12:39;;;;;;;2.30;1.20;;;;;;;;;;8359327;28;20323;-60
2022/08/12 14:16:39;;;;;;;1.77;1.20;;;;;;;;;;8368031;28;20720;-59
2022/08/12 14:20:40;;;;;;;3.85;1.30;;;;;;;;;;8368514;28;20542;-58
2022/08/12 14:24:41;;;;;;;3.83;1.17;;;;;;;;;;8368573;28;20041;-59
2022/08/12 14:28:41;;;;;;;1.75;1.25;;;;;;;;;;8361583;28;20585;-59
2022/08/12 14:32:41;;;;;;;4.70;1.20;;;;;;;;;;8368777;28;20628;-59
2022/08/12 14:36:41;;;;;;;2.17;1.10;;;;;;;;;;8367089;28;20421;-60
2022/08/12 14:40:43;;;;;;;5.28;1.30;;;;;;;;;;8368705;28;20497;-58
2022/08/12 14:44:43;;;;;;;1.43;1.20;;;;;;;;;;8373665;28;20028;-60
2022/08/12 14:48:45;;;;;;;2.50;1.10;;;;;;;;;;8374927;28;20378;-58
2022/08/12 14:52:46;;;;;;;1.13;1.00;;;;;;;;;;8368380;28;20500;-59
2022/08/12 14:56:49;;;;;;;2.50;1.10;;;;;;;;;;8365651;28;20071;-59
2022/08/12 15:05:08;;;;;;;3.53;1.20;;;;;;;;;;8376534;28;20164;-58
2022/08/12 15:09:08;;;;;;;3.15;1.20;;;;;;;;;;8382557;28;20024;-58
2022/08/12 15:13:09;;;;;;;3.80;1.10;;;;;;;;;;8377442;28;20136;-58
2022/08/12 15:17:10;;;;;;;4.00;1.20;;;;;;;;;;8376296;28;20058;-59
2022/08/12 15:21:10;;;;;;;1.10;1.00;;;;;;;;;;8376383;28;20958;-58
2022/08/12 15:25:10;;;;;;;1.37;1.00;;;;;;;;;;8377958;28;20013;-58
2022/08/12 15:29:10;;;;;;;3.38;1.10;;;;;;;;;;8373386;28;20134;-58
2022/08/12 15:33:11;;;;;;;5.68;1.00;;;;;;;;;;8376225;28;20031;-58
2022/08/12 15:37:13;;;;;;;1.70;1.00;;;;;;;;;;8378044;28;20024;-58
2022/08/12 15:41:14;;;;;;;1.58;1.00;;;;;;;;;;8378400;28;20028;-59
2022/08/12 15:45:15;;;;;;;6.20;1.20;;;;;;;;;;8376042;28;20016;-58
2022/08/12 15:49:16;;;;;;;2.95;1.20;;;;;;;;;;8378524;28;20646;-58
2022/08/12 15:54:03;;;;;;;3.97;1.05;;;;;;;;;;8375444;28;20536;-58
2022/08/12 15:57:40;;;;;;;4.72;1.10;;;;;;;;;;8373331;28;20028;-58
2022/08/12 16:01:40;;;;;;;2.20;0.90;;;;;;;;;;8373644;28;20095;-58
2022/08/12 16:05:41;;;;;;;3.22;1.10;;;;;;;;;;8377799;28;20143;-60
2022/08/12 16:09:41;;;;;;;1.58;1.13;;;;;;;;;;8377466;28;20032;-60
2022/08/12 16:13:42;;;;;;;1.63;1.17;;;;;;;;;;8370214;28;20545;-58
2022/08/12 16:17:45;;;;;;;2.22;1.20;;;;;;;;;;8366675;28;20497;-58
2022/08/12 16:21:45;;;;;;;1.83;1.10;;;;;;;;;;8366761;28;20028;-58
2022/08/12 16:25:48;;;;;;;2.75;1.13;;;;;;;;;;8367467;28;20028;-58
2022/08/12 16:29:55;;;;;;;3.92;1.23;;;;;;;;;;8364521;28;20469;-58
2022/08/12 16:33:56;;;;;;;3.15;1.00;;;;;;;;;;8368718;28;20363;-58
2022/08/12 16:37:56;;;;;;;2.23;1.00;;;;;;;;;;8367224;28;20028;-58
2022/08/12 16:41:56;;;;;;;1.80;1.10;;;;;;;;;;8355958;28;20026;-57
2022/08/12 16:46:00;;;;;;;2.65;0.98;;;;;;;;;;8364538;28;21247;-58
2022/08/12 16:50:01;;;;;;;9.60;1.48;;;;;;;;;;8363504;28;20044;-57
2022/08/12 16:54:02;;;;;;;4.63;1.38;;;;;;;;;;8363724;28;20449;-58
2022/08/12 16:58:03;;;;;;;2.15;1.10;;;;;;;;;;8363622;28;20468;-58
2022/08/12 17:02:04;;;;;;;2.60;0.90;;;;;;;;;;8361759;28;20064;-58
2022/08/12 17:06:09;;;;;;;2.45;1.10;;;;;;;;;;8365618;28;20028;-58
2022/08/12 17:10:13;;;;;;;1.80;0.90;;;;;;;;;;8367112;28;20135;-57
2022/08/12 17:14:14;;;;;;;4.57;1.00;;;;;;;;;;8365204;28;20092;-58
2022/08/12 17:18:15;;;;;;;9.13;1.20;;;;;;;;;;8364934;28;20044;-58
2022/08/12 17:22:16;;;;;;;1.88;1.10;;;;;;;;;;8365961;28;20063;-58
2022/08/12 17:26:19;;;;;;;3.92;1.00;;;;;;;;;;8370168;28;20020;-58
2022/08/12 17:30:20;;;;;;;10.40;1.10;;;;;;;;;;8367458;28;20400;-59
2022/08/12 17:38:43;;;;;;;1.95;1.13;;;;;;;;;;8370362;28;20031;-58
2022/08/12 17:42:44;;;;;;;2.35;1.13;;;;;;;;;;8368943;28;20489;-58
2022/08/12 17:46:44;;;;;;;5.35;1.00;;;;;;;;;;8366612;28;20028;-58
2022/08/12 17:50:45;;;;;;;1.80;1.05;;;;;;;;;;8367485;28;20661;-58
2022/08/12 17:54:48;;;;;;;4.20;1.10;;;;;;;;;;8370414;28;20038;-58
2022/08/12 17:58:48;;;;;;;7.35;1.17;;;;;;;;;;8368445;28;20040;-60
2022/08/12 18:02:49;;;;;;;1.23;1.10;;;;;;;;;;8368107;28;20089;-58
2022/08/12 18:06:50;;;;;;;1.85;1.10;;;;;;;;;;8366668;28;20705;-58
2022/08/12 18:15:18;;;;;;;2.15;1.13;;;;;;;;;;8369869;28;20149;-57
2022/08/12 18:19:18;;;;;;;2.70;1.10;;;;;;;;;;8368487;28;20320;-58
2022/08/12 18:23:18;;;;;;;3.55;1.20;;;;;;;;;;8369704;28;20024;-57
2022/08/12 18:27:19;;;;;;;5.80;1.17;;;;;;;;;;8368027;28;20514;-58
2022/08/12 18:31:28;;;;;;;5.37;1.30;;;;;;;;;;8371181;28;20565;-57
2022/08/12 18:35:30;;;;;;;4.78;1.20;;;;;;;;;;8371104;28;20278;-57
2022/08/12 18:41:27;;;;;;;0.90;0.90;;;;;;;;;;8372429;28;20155;-58
2022/08/12 18:43:57;;;;;;;;;;;;;;;;;;8370262;28;20488;-58
2022/08/12 18:47:59;;;;;;;2.00;1.00;;;;;;;;;;8371930;28;20736;-57
2022/08/12 18:52:01;;;;;;;4.23;1.10;;;;;;;;;;8368909;28;20020;-57
2022/08/12 18:56:06;;;;;;;1.63;1.02;;;;;;;;;;8368179;28;20074;-57
2022/08/12 19:00:06;;;;;;;1.75;0.90;;;;;;;;;;8365469;28;20034;-57
2022/08/12 19:04:07;;;;;;;1.75;1.00;;;;;;;;;;8365824;28;20058;-57
2022/08/12 19:08:07;;;;;;;3.72;1.17;;;;;;;;;;8372605;28;20024;-58
2022/08/12 19:16:33;;;;;;;1.05;0.82;;;;;;;;;;8370373;28;20048;-58
2022/08/12 19:20:37;;;;;;;5.13;1.10;;;;;;;;;;8371602;28;20032;-57
2022/08/12 19:28:58;;;;;;;5.35;1.10;;;;;;;;;;8369181;28;20440;-57
2022/08/12 19:32:59;;;;;;;1.85;1.00;;;;;;;;;;8373332;28;20037;-57
2022/08/12 19:37:03;;;;;;;2.50;1.10;;;;;;;;;;8371261;28;20094;-57
2022/08/12 19:41:06;;;;;;;1.42;1.08;;;;;;;;;;8374298;28;20031;-57
2022/08/12 19:45:08;;;;;;;4.95;1.20;;;;;;;;;;8370848;28;20032;-57
2022/08/12 19:49:12;;;;;;;1.48;1.13;;;;;;;;;;8374589;28;20188;-57
2022/08/12 19:53:13;;;;;;;3.63;1.30;;;;;;;;;;8373567;28;20027;-57
2022/08/12 19:57:13;;;;;;;4.20;1.30;;;;;;;;;;8373363;28;20028;-57
2022/08/12 20:01:14;;;;;;;4.53;1.30;;;;;;;;;;8372396;28;20294;-57
2022/08/12 20:05:15;;;;;;;4.43;1.25;;;;;;;;;;8377126;28;20267;-57
2022/08/12 20:09:16;;;;;;;5.40;1.40;;;;;;;;;;8375181;28;20057;-57
2022/08/12 20:13:17;;;;;;;3.40;1.55;;;;;;;;;;8373346;28;20032;-57
2022/08/12 20:17:18;;;;;;;4.15;1.20;;;;;;;;;;8374143;28;20086;-57
2022/08/12 20:21:19;;;;;;;2.58;1.27;;;;;;;;;;8373926;28;20071;-56
2022/08/12 20:25:19;;;;;;;2.30;1.20;;;;;;;;;;8375106;28;20013;-57
2022/08/12 20:29:21;;;;;;;2.33;1.20;;;;;;;;;;8373378;28;20068;-56
2022/08/12 20:33:24;;;;;;;3.95;1.05;;;;;;;;;;8374165;28;20067;-57
2022/08/12 20:37:25;;;;;;;2.80;1.25;;;;;;;;;;8373973;28;20051;-56
2022/08/12 20:41:28;;;;;;;2.85;1.20;;;;;;;;;;8372065;28;20035;-57
2022/08/12 20:45:29;;;;;;;4.78;1.15;;;;;;;;;;8374278;28;20525;-57
2022/08/12 20:49:29;;;;;;;5.25;1.38;;;;;;;;;;8372649;28;20143;-57
2022/08/12 20:53:30;;;;;;;1.80;1.02;;;;;;;;;;8371952;28;20025;-56
2022/08/12 20:57:30;;;;;;;6.13;1.20;;;;;;;;;;8369782;28;20036;-57
2022/08/12 21:01:34;;;;;;;1.52;1.15;;;;;;;;;;8367322;28;20040;-57
2022/08/12 21:09:53;;;;;;;2.85;1.13;;;;;;;;;;8368608;28;20031;-57
2022/08/12 21:13:53;;;;;;;2.58;1.20;;;;;;;;;;8365873;28;20021;-57
2022/08/12 21:18:00;;;;;;;1.77;1.00;;;;;;;;;;8367040;28;20076;-57
2022/08/12 21:22:01;;;;;;;1.48;1.10;;;;;;;;;;8366652;28;20020;-57
2022/08/12 21:26:04;;;;;;;1.42;1.10;;;;;;;;;;8365240;28;20111;-57
2022/08/12 21:30:05;;;;;;;1.97;0.97;;;;;;;;;;8365786;28;20017;-59
2022/08/12 21:34:05;;;;;;;1.20;0.90;;;;;;;;;;8366086;28;20024;-57
2022/08/12 21:38:05;;;;;;;1.00;0.90;;;;;;;;;;8366173;28;20202;-57
2022/08/12 21:42:05;;;;;;;2.88;1.10;;;;;;;;;;8365981;28;20615;-57
2022/08/12 21:46:05;;;;;;;2.03;0.80;;;;;;;;;;8365787;28;20041;-55
2022/08/12 21:50:06;;;;;;;3.28;1.00;;;;;;;;;;8366067;28;20329;-57
2022/08/12 21:54:08;;;;;;;1.73;1.10;;;;;;;;;;8364749;28;20530;-57
2022/08/12 21:58:09;;;;;;;1.38;1.27;;;;;;;;;;8360913;28;20088;-57
2022/08/12 22:06:30;;;;;;;2.03;0.90;;;;;;;;;;8366034;28;20039;-56
2022/08/12 22:10:30;;;;;;;4.43;1.10;;;;;;;;;;8367589;28;20056;-57
2022/08/12 22:14:30;;;;;;;5.80;0.98;;;;;;;;;;8367255;28;20472;-57
2022/08/12 22:18:30;;;;;;;0.90;0.90;;;;;;;;;;8366860;28;20032;-57
2022/08/12 22:22:31;;;;;;;4.43;0.80;;;;;;;;;;8365065;28;20119;-56
2022/08/12 22:26:31;;;;;;;1.13;1.02;;;;;;;;;;8368924;28;20025;-57
2022/08/12 22:35:27;;;;;;;2.10;0.88;;;;;;;;;;8365894;28;20035;-57
2022/08/12 22:39:11;;;;;;;1.58;0.90;;;;;;;;;;8365881;28;20032;-57
2022/08/12 22:52:10;;;;;;;6.95;1.25;;;;;;;;;;8367793;28;20073;-56
2022/08/12 22:56:10;;;;;;;1.43;0.97;;;;;;;;;;8366943;28;20009;-57
2022/08/12 23:00:12;;;;;;;0.85;0.85;;;;;;;;;;8362721;28;20021;-56
2022/08/12 23:04:15;;;;;;;3.55;0.95;;;;;;;;;;8364847;28;20138;-57
2022/08/12 23:08:15;;;;;;;3.50;1.00;;;;;;;;;;8366348;28;20564;-56
2022/08/12 23:13:44;;;;;;;1.83;1.10;;;;;;;;;;8364043;28;20029;-57
2022/08/12 23:16:36;;;;;;;1.33;1.05;;;;;;;;;;8364746;28;20032;-57
2022/08/12 23:20:36;;;;;;;1.20;0.80;;;;;;;;;;8362921;28;20463;-57
2022/08/12 23:24:36;;;;;;;1.00;0.80;;;;;;;;;;8364624;28;20035;-57
2022/08/12 23:32:55;;;;;;;1.85;1.10;;;;;;;;;;8363476;28;20339;-57
2022/08/12 23:36:58;;;;;;;0.80;0.80;;;;;;;;;;8361842;28;20048;-57
2022/08/12 23:41:02;;;;;;;1.33;1.05;;;;;;;;;;8363716;28;20032;-56
2022/08/12 23:45:03;;;;;;;1.65;0.80;;;;;;;;;;8362048;28;20024;-56
2022/08/12 23:49:04;;;;;;;1.17;0.90;;;;;;;;;;8362153;28;20036;-57
2022/08/12 23:53:06;;;;;;;0.90;0.90;;;;;;;;;;8362118;28;20032;-56
2022/08/12 23:57:13;;;;;;;1.98;0.70;;;;;;;;;;8362348;28;20051;-57
